sensor_id;sensor_type;location;lat;lon;timestamp;P1;durP1;ratioP1;P2;durP2;ratioP2
30010;SDS011;16851;53.564;8.112;2023-08-31T00:04:14;6.80;;;3.80;;
30010;SDS011;16851;53.564;8.112;2023-08-31T00:09:19;6.15;;;3.50;;
30010;SDS011;16851;53.564;8.112;2023-08-31T00:14:20;7.95;;;3.75;;
30010;SDS011;16851;53.564;8.112;2023-08-31T00:19:25;8.27;;;4.10;;
30010;SDS011;16851;53.564;8.112;2023-08-31T00:24:27;8.88;;;4.65;;
30010;SDS011;16851;53.564;8.112;2023-08-31T00:29:35;8.10;;;4.28;;
30010;SDS011;16851;53.564;8.112;2023-08-31T00:34:41;7.95;;;4.45;;
30010;SDS011;16851;53.564;8.112;2023-08-31T00:39:42;12.38;;;4.65;;
30010;SDS011;16851;53.564;8.112;2023-08-31T00:44:48;8.32;;;4.20;;
30010;SDS011;16851;53.564;8.112;2023-08-31T00:49:50;10.02;;;5.30;;
30010;SDS011;16851;53.564;8.112;2023-08-31T00:54:54;11.13;;;5.40;;
30010;SDS011;16851;53.564;8.112;2023-08-31T00:59:57;13.77;;;5.57;;
30010;SDS011;16851;53.564;8.112;2023-08-31T01:10:25;6.78;;;4.63;;
30010;SDS011;16851;53.564;8.112;2023-08-31T01:15:33;8.70;;;4.93;;
30010;SDS011;16851;53.564;8.112;2023-08-31T01:20:38;10.25;;;4.80;;
30010;SDS011;16851;53.564;8.112;2023-08-31T01:25:53;8.43;;;4.18;;
30010;SDS011;16851;53.564;8.112;2023-08-31T01:31:05;9.27;;;4.90;;
30010;SDS011;16851;53.564;8.112;2023-08-31T01:36:08;9.07;;;4.25;;
30010;SDS011;16851;53.564;8.112;2023-08-31T01:41:26;11.13;;;4.97;;
30010;SDS011;16851;53.564;8.112;2023-08-31T01:46:30;6.93;;;4.25;;
30010;SDS011;16851;53.564;8.112;2023-08-31T01:51:33;13.88;;;4.45;;
30010;SDS011;16851;53.564;8.112;2023-08-31T01:56:37;6.00;;;3.60;;
30010;SDS011;16851;53.564;8.112;2023-08-31T02:01:42;6.60;;;3.78;;
30010;SDS011;16851;53.564;8.112;2023-08-31T02:06:43;8.27;;;4.10;;
30010;SDS011;16851;53.564;8.112;2023-08-31T02:11:45;6.32;;;3.47;;
30010;SDS011;16851;53.564;8.112;2023-08-31T02:16:48;7.93;;;3.92;;
30010;SDS011;16851;53.564;8.112;2023-08-31T02:21:53;4.80;;;4.05;;
30010;SDS011;16851;53.564;8.112;2023-08-31T02:26:55;5.93;;;3.90;;
30010;SDS011;16851;53.564;8.112;2023-08-31T02:32:00;6.53;;;3.70;;
30010;SDS011;16851;53.564;8.112;2023-08-31T02:37:07;6.28;;;3.70;;
30010;SDS011;16851;53.564;8.112;2023-08-31T02:42:09;7.15;;;3.05;;
30010;SDS011;16851;53.564;8.112;2023-08-31T02:47:12;9.60;;;3.63;;
30010;SDS011;16851;53.564;8.112;2023-08-31T02:52:16;7.72;;;3.33;;
30010;SDS011;16851;53.564;8.112;2023-08-31T02:57:17;6.07;;;3.40;;
30010;SDS011;16851;53.564;8.112;2023-08-31T03:02:23;7.47;;;2.95;;
30010;SDS011;16851;53.564;8.112;2023-08-31T03:07:25;5.95;;;3.50;;
30010;SDS011;16851;53.564;8.112;2023-08-31T03:12:29;5.57;;;3.35;;
30010;SDS011;16851;53.564;8.112;2023-08-31T03:17:31;7.90;;;3.20;;
30010;SDS011;16851;53.564;8.112;2023-08-31T03:22:35;7.18;;;3.30;;
30010;SDS011;16851;53.564;8.112;2023-08-31T03:27:38;8.35;;;3.40;;
30010;SDS011;16851;53.564;8.112;2023-08-31T03:32:43;11.10;;;3.50;;
30010;SDS011;16851;53.564;8.112;2023-08-31T03:37:48;9.68;;;3.60;;
30010;SDS011;16851;53.564;8.112;2023-08-31T03:42:50;8.00;;;3.53;;
30010;SDS011;16851;53.564;8.112;2023-08-31T03:47:51;5.05;;;4.13;;
30010;SDS011;16851;53.564;8.112;2023-08-31T03:52:55;9.07;;;3.80;;
30010;SDS011;16851;53.564;8.112;2023-08-31T03:58:00;4.72;;;2.97;;
30010;SDS011;16851;53.564;8.112;2023-08-31T04:03:05;7.28;;;3.47;;
30010;SDS011;16851;53.564;8.112;2023-08-31T04:08:12;6.68;;;4.05;;
30010;SDS011;16851;53.564;8.112;2023-08-31T04:13:14;7.82;;;4.10;;
30010;SDS011;16851;53.564;8.112;2023-08-31T04:18:19;14.18;;;4.40;;
30010;SDS011;16851;53.564;8.112;2023-08-31T04:23:21;11.75;;;5.72;;
30010;SDS011;16851;53.564;8.112;2023-08-31T04:28:28;10.23;;;4.57;;
30010;SDS011;16851;53.564;8.112;2023-08-31T04:33:34;11.13;;;5.40;;
30010;SDS011;16851;53.564;8.112;2023-08-31T04:38:37;13.05;;;6.07;;
30010;SDS011;16851;53.564;8.112;2023-08-31T04:43:39;8.55;;;4.80;;
30010;SDS011;16851;53.564;8.112;2023-08-31T04:48:44;8.25;;;4.60;;
30010;SDS011;16851;53.564;8.112;2023-08-31T04:53:50;9.10;;;4.78;;
30010;SDS011;16851;53.564;8.112;2023-08-31T04:58:54;8.77;;;4.43;;
30010;SDS011;16851;53.564;8.112;2023-08-31T05:04:02;8.55;;;4.65;;
30010;SDS011;16851;53.564;8.112;2023-08-31T05:09:04;11.45;;;4.90;;
30010;SDS011;16851;53.564;8.112;2023-08-31T05:14:12;9.02;;;4.20;;
30010;SDS011;16851;53.564;8.112;2023-08-31T05:19:14;9.55;;;4.60;;
30010;SDS011;16851;53.564;8.112;2023-08-31T05:24:18;6.28;;;3.88;;
30010;SDS011;16851;53.564;8.112;2023-08-31T05:29:20;5.28;;;3.58;;
30010;SDS011;16851;53.564;8.112;2023-08-31T05:34:21;9.02;;;4.20;;
30010;SDS011;16851;53.564;8.112;2023-08-31T05:39:24;8.48;;;3.97;;
30010;SDS011;16851;53.564;8.112;2023-08-31T05:44:26;7.88;;;4.43;;
30010;SDS011;16851;53.564;8.112;2023-08-31T05:49:28;10.52;;;4.45;;
30010;SDS011;16851;53.564;8.112;2023-08-31T05:54:30;8.45;;;4.15;;
30010;SDS011;16851;53.564;8.112;2023-08-31T05:59:34;7.10;;;5.07;;
30010;SDS011;16851;53.564;8.112;2023-08-31T06:04:41;11.38;;;5.60;;
30010;SDS011;16851;53.564;8.112;2023-08-31T06:09:44;12.10;;;4.63;;
30010;SDS011;16851;53.564;8.112;2023-08-31T06:14:51;12.73;;;5.75;;
30010;SDS011;16851;53.564;8.112;2023-08-31T06:19:55;8.52;;;5.00;;
30010;SDS011;16851;53.564;8.112;2023-08-31T06:24:56;8.43;;;5.20;;
30010;SDS011;16851;53.564;8.112;2023-08-31T06:30:01;13.80;;;6.03;;
30010;SDS011;16851;53.564;8.112;2023-08-31T06:35:05;9.07;;;5.57;;
30010;SDS011;16851;53.564;8.112;2023-08-31T06:40:10;14.07;;;6.93;;
30010;SDS011;16851;53.564;8.112;2023-08-31T06:45:13;11.07;;;7.03;;
30010;SDS011;16851;53.564;8.112;2023-08-31T06:50:15;14.32;;;7.55;;
30010;SDS011;16851;53.564;8.112;2023-08-31T06:55:20;9.93;;;7.40;;
30010;SDS011;16851;53.564;8.112;2023-08-31T07:00:24;12.27;;;7.30;;
30010;SDS011;16851;53.564;8.112;2023-08-31T07:05:26;8.70;;;6.13;;
30010;SDS011;16851;53.564;8.112;2023-08-31T07:10:30;12.77;;;7.07;;
30010;SDS011;16851;53.564;8.112;2023-08-31T07:15:37;12.43;;;6.50;;
30010;SDS011;16851;53.564;8.112;2023-08-31T07:20:39;10.35;;;7.40;;
30010;SDS011;16851;53.564;8.112;2023-08-31T07:25:46;12.02;;;6.20;;
30010;SDS011;16851;53.564;8.112;2023-08-31T07:30:59;13.07;;;7.13;;
30010;SDS011;16851;53.564;8.112;2023-08-31T07:36:05;11.95;;;6.57;;
30010;SDS011;16851;53.564;8.112;2023-08-31T07:41:10;9.68;;;6.55;;
30010;SDS011;16851;53.564;8.112;2023-08-31T07:46:12;10.48;;;5.32;;
30010;SDS011;16851;53.564;8.112;2023-08-31T07:51:19;8.43;;;5.93;;
30010;SDS011;16851;53.564;8.112;2023-08-31T07:56:25;10.70;;;6.03;;
30010;SDS011;16851;53.564;8.112;2023-08-31T08:01:28;9.98;;;5.50;;
30010;SDS011;16851;53.564;8.112;2023-08-31T08:06:30;8.65;;;5.25;;
30010;SDS011;16851;53.564;8.112;2023-08-31T08:11:34;7.60;;;4.97;;
30010;SDS011;16851;53.564;8.112;2023-08-31T08:16:39;12.23;;;5.40;;
30010;SDS011;16851;53.564;8.112;2023-08-31T08:21:40;9.95;;;4.75;;
30010;SDS011;16851;53.564;8.112;2023-08-31T08:26:43;12.07;;;5.40;;
30010;SDS011;16851;53.564;8.112;2023-08-31T08:31:45;10.57;;;5.13;;
30010;SDS011;16851;53.564;8.112;2023-08-31T08:36:47;10.35;;;4.90;;
30010;SDS011;16851;53.564;8.112;2023-08-31T08:41:51;10.85;;;4.60;;
30010;SDS011;16851;53.564;8.112;2023-08-31T08:46:55;9.10;;;4.78;;
30010;SDS011;16851;53.564;8.112;2023-08-31T08:51:58;9.55;;;4.60;;
30010;SDS011;16851;53.564;8.112;2023-08-31T08:57:03;14.63;;;4.30;;
30010;SDS011;16851;53.564;8.112;2023-08-31T09:02:07;6.07;;;4.10;;
30010;SDS011;16851;53.564;8.112;2023-08-31T09:07:19;9.98;;;4.38;;
30010;SDS011;16851;53.564;8.112;2023-08-31T09:12:25;10.45;;;3.63;;
30010;SDS011;16851;53.564;8.112;2023-08-31T09:17:39;6.63;;;3.00;;
30010;SDS011;16851;53.564;8.112;2023-08-31T09:22:43;4.97;;;3.10;;
30010;SDS011;16851;53.564;8.112;2023-08-31T09:27:50;3.83;;;2.90;;
30010;SDS011;16851;53.564;8.112;2023-08-31T09:32:52;8.40;;;3.47;;
30010;SDS011;16851;53.564;8.112;2023-08-31T09:37:58;6.93;;;4.03;;
30010;SDS011;16851;53.564;8.112;2023-08-31T09:43:02;7.15;;;4.22;;
30010;SDS011;16851;53.564;8.112;2023-08-31T09:48:09;6.75;;;3.97;;
30010;SDS011;16851;53.564;8.112;2023-08-31T09:53:16;8.20;;;4.30;;
30010;SDS011;16851;53.564;8.112;2023-08-31T09:58:19;10.93;;;6.32;;
30010;SDS011;16851;53.564;8.112;2023-08-31T10:03:26;7.15;;;5.30;;
30010;SDS011;16851;53.564;8.112;2023-08-31T10:08:28;8.57;;;5.95;;
30010;SDS011;16851;53.564;8.112;2023-08-31T10:13:32;7.65;;;5.45;;
30010;SDS011;16851;53.564;8.112;2023-08-31T10:18:38;9.38;;;5.65;;
30010;SDS011;16851;53.564;8.112;2023-08-31T10:23:46;8.20;;;5.22;;
30010;SDS011;16851;53.564;8.112;2023-08-31T10:28:53;7.75;;;5.55;;
30010;SDS011;16851;53.564;8.112;2023-08-31T10:39:04;9.05;;;4.47;;
30010;SDS011;16851;53.564;8.112;2023-08-31T10:44:19;6.75;;;4.00;;
30010;SDS011;16851;53.564;8.112;2023-08-31T10:49:27;11.38;;;5.90;;
30010;SDS011;16851;53.564;8.112;2023-08-31T10:54:34;9.82;;;4.10;;
30010;SDS011;16851;53.564;8.112;2023-08-31T11:15:11;4.40;;;1.70;;
30010;SDS011;16851;53.564;8.112;2023-08-31T11:20:16;4.28;;;2.03;;
30010;SDS011;16851;53.564;8.112;2023-08-31T11:25:19;4.85;;;1.88;;
30010;SDS011;16851;53.564;8.112;2023-08-31T11:30:33;3.40;;;2.10;;
30010;SDS011;16851;53.564;8.112;2023-08-31T11:35:36;9.65;;;3.30;;
30010;SDS011;16851;53.564;8.112;2023-08-31T11:40:44;8.30;;;3.83;;
30010;SDS011;16851;53.564;8.112;2023-08-31T11:45:46;4.57;;;2.85;;
30010;SDS011;16851;53.564;8.112;2023-08-31T11:50:48;5.88;;;2.72;;
30010;SDS011;16851;53.564;8.112;2023-08-31T11:55:51;3.92;;;2.00;;
30010;SDS011;16851;53.564;8.112;2023-08-31T12:00:57;4.30;;;1.63;;
30010;SDS011;16851;53.564;8.112;2023-08-31T12:06:00;4.60;;;1.20;;
30010;SDS011;16851;53.564;8.112;2023-08-31T12:11:08;2.58;;;1.27;;
30010;SDS011;16851;53.564;8.112;2023-08-31T12:16:13;1.55;;;0.80;;
30010;SDS011;16851;53.564;8.112;2023-08-31T12:21:15;3.92;;;0.88;;
30010;SDS011;16851;53.564;8.112;2023-08-31T12:26:21;2.45;;;0.80;;
30010;SDS011;16851;53.564;8.112;2023-08-31T12:31:25;4.55;;;1.15;;
30010;SDS011;16851;53.564;8.112;2023-08-31T12:36:30;2.10;;;0.90;;
30010;SDS011;16851;53.564;8.112;2023-08-31T12:41:32;1.65;;;0.80;;
30010;SDS011;16851;53.564;8.112;2023-08-31T12:46:34;1.90;;;0.60;;
30010;SDS011;16851;53.564;8.112;2023-08-31T12:51:39;1.00;;;0.60;;
30010;SDS011;16851;53.564;8.112;2023-08-31T12:56:43;2.60;;;0.82;;
30010;SDS011;16851;53.564;8.112;2023-08-31T13:01:45;2.83;;;0.75;;
30010;SDS011;16851;53.564;8.112;2023-08-31T13:06:54;1.17;;;0.55;;
30010;SDS011;16851;53.564;8.112;2023-08-31T13:11:56;2.10;;;0.80;;
30010;SDS011;16851;53.564;8.112;2023-08-31T13:16:58;3.58;;;0.80;;
30010;SDS011;16851;53.564;8.112;2023-08-31T13:22:00;2.50;;;0.80;;
30010;SDS011;16851;53.564;8.112;2023-08-31T13:27:05;2.30;;;0.80;;
30010;SDS011;16851;53.564;8.112;2023-08-31T13:32:09;3.42;;;0.85;;
30010;SDS011;16851;53.564;8.112;2023-08-31T13:37:12;2.63;;;1.02;;
30010;SDS011;16851;53.564;8.112;2023-08-31T13:42:20;2.65;;;0.98;;
30010;SDS011;16851;53.564;8.112;2023-08-31T13:47:24;2.15;;;0.88;;
30010;SDS011;16851;53.564;8.112;2023-08-31T13:52:31;4.07;;;1.23;;
30010;SDS011;16851;53.564;8.112;2023-08-31T13:57:33;2.85;;;1.20;;
30010;SDS011;16851;53.564;8.112;2023-08-31T14:02:39;5.00;;;1.70;;
30010;SDS011;16851;53.564;8.112;2023-08-31T14:07:42;4.22;;;1.45;;
30010;SDS011;16851;53.564;8.112;2023-08-31T14:12:46;4.22;;;1.60;;
30010;SDS011;16851;53.564;8.112;2023-08-31T14:17:50;3.45;;;1.45;;
30010;SDS011;16851;53.564;8.112;2023-08-31T14:22:57;4.80;;;1.48;;
30010;SDS011;16851;53.564;8.112;2023-08-31T14:28:01;3.15;;;1.13;;
30010;SDS011;16851;53.564;8.112;2023-08-31T14:33:05;3.58;;;1.17;;
30010;SDS011;16851;53.564;8.112;2023-08-31T14:38:10;2.88;;;1.40;;
30010;SDS011;16851;53.564;8.112;2023-08-31T14:43:12;5.20;;;1.27;;
30010;SDS011;16851;53.564;8.112;2023-08-31T14:48:16;4.53;;;1.33;;
30010;SDS011;16851;53.564;8.112;2023-08-31T14:53:18;3.08;;;1.15;;
30010;SDS011;16851;53.564;8.112;2023-08-31T14:58:20;4.85;;;1.38;;
30010;SDS011;16851;53.564;8.112;2023-08-31T15:03:24;5.15;;;1.42;;
30010;SDS011;16851;53.564;8.112;2023-08-31T15:08:39;5.22;;;1.60;;
30010;SDS011;16851;53.564;8.112;2023-08-31T15:13:43;7.55;;;1.52;;
30010;SDS011;16851;53.564;8.112;2023-08-31T15:18:47;4.70;;;1.52;;
30010;SDS011;16851;53.564;8.112;2023-08-31T15:23:49;4.50;;;1.27;;
30010;SDS011;16851;53.564;8.112;2023-08-31T15:28:54;6.32;;;1.38;;
30010;SDS011;16851;53.564;8.112;2023-08-31T15:33:56;2.20;;;1.13;;
30010;SDS011;16851;53.564;8.112;2023-08-31T15:39:01;2.95;;;1.30;;
30010;SDS011;16851;53.564;8.112;2023-08-31T15:44:05;3.75;;;1.00;;
30010;SDS011;16851;53.564;8.112;2023-08-31T15:49:10;3.60;;;1.13;;
30010;SDS011;16851;53.564;8.112;2023-08-31T15:54:12;6.65;;;1.30;;
30010;SDS011;16851;53.564;8.112;2023-08-31T15:59:14;4.53;;;1.00;;
30010;SDS011;16851;53.564;8.112;2023-08-31T16:04:19;3.25;;;1.10;;
30010;SDS011;16851;53.564;8.112;2023-08-31T16:09:20;5.38;;;1.70;;
30010;SDS011;16851;53.564;8.112;2023-08-31T16:14:26;6.53;;;1.40;;
30010;SDS011;16851;53.564;8.112;2023-08-31T16:19:32;4.03;;;1.40;;
30010;SDS011;16851;53.564;8.112;2023-08-31T16:24:38;3.63;;;1.40;;
30010;SDS011;16851;53.564;8.112;2023-08-31T16:29:40;3.55;;;1.27;;
30010;SDS011;16851;53.564;8.112;2023-08-31T16:34:42;4.22;;;1.20;;
30010;SDS011;16851;53.564;8.112;2023-08-31T16:39:43;3.20;;;1.10;;
30010;SDS011;16851;53.564;8.112;2023-08-31T16:44:48;4.35;;;1.35;;
30010;SDS011;16851;53.564;8.112;2023-08-31T16:49:53;4.70;;;1.45;;
30010;SDS011;16851;53.564;8.112;2023-08-31T16:55:01;3.00;;;1.30;;
30010;SDS011;16851;53.564;8.112;2023-08-31T17:00:05;3.92;;;1.63;;
30010;SDS011;16851;53.564;8.112;2023-08-31T17:05:11;5.35;;;1.48;;
30010;SDS011;16851;53.564;8.112;2023-08-31T17:10:14;5.22;;;1.35;;
30010;SDS011;16851;53.564;8.112;2023-08-31T17:15:21;5.18;;;1.65;;
30010;SDS011;16851;53.564;8.112;2023-08-31T17:20:30;6.38;;;1.98;;
30010;SDS011;16851;53.564;8.112;2023-08-31T17:25:35;2.90;;;1.65;;
30010;SDS011;16851;53.564;8.112;2023-08-31T17:30:41;4.22;;;1.30;;
30010;SDS011;16851;53.564;8.112;2023-08-31T17:35:43;4.93;;;1.83;;
30010;SDS011;16851;53.564;8.112;2023-08-31T17:40:45;2.92;;;1.55;;
30010;SDS011;16851;53.564;8.112;2023-08-31T17:45:52;4.57;;;2.00;;
30010;SDS011;16851;53.564;8.112;2023-08-31T17:50:58;4.20;;;1.73;;
30010;SDS011;16851;53.564;8.112;2023-08-31T17:56:00;3.83;;;1.48;;
30010;SDS011;16851;53.564;8.112;2023-08-31T18:01:06;5.68;;;1.92;;
30010;SDS011;16851;53.564;8.112;2023-08-31T18:06:10;3.25;;;1.60;;
30010;SDS011;16851;53.564;8.112;2023-08-31T18:11:13;3.35;;;1.70;;
30010;SDS011;16851;53.564;8.112;2023-08-31T18:16:15;6.78;;;1.70;;
30010;SDS011;16851;53.564;8.112;2023-08-31T18:21:17;3.15;;;1.80;;
30010;SDS011;16851;53.564;8.112;2023-08-31T18:26:20;5.22;;;2.10;;
30010;SDS011;16851;53.564;8.112;2023-08-31T18:31:26;5.63;;;2.03;;
30010;SDS011;16851;53.564;8.112;2023-08-31T18:36:28;5.72;;;1.85;;
30010;SDS011;16851;53.564;8.112;2023-08-31T18:41:34;6.65;;;2.08;;
30010;SDS011;16851;53.564;8.112;2023-08-31T18:46:37;8.25;;;2.45;;
30010;SDS011;16851;53.564;8.112;2023-08-31T18:51:39;6.93;;;2.58;;
30010;SDS011;16851;53.564;8.112;2023-08-31T18:56:47;6.65;;;2.28;;
30010;SDS011;16851;53.564;8.112;2023-08-31T19:01:49;6.18;;;2.10;;
30010;SDS011;16851;53.564;8.112;2023-08-31T19:06:51;8.25;;;1.95;;
30010;SDS011;16851;53.564;8.112;2023-08-31T19:11:56;6.97;;;2.10;;
30010;SDS011;16851;53.564;8.112;2023-08-31T19:17:00;8.63;;;2.20;;
30010;SDS011;16851;53.564;8.112;2023-08-31T19:22:02;5.70;;;2.03;;
30010;SDS011;16851;53.564;8.112;2023-08-31T19:27:06;5.82;;;1.38;;
30010;SDS011;16851;53.564;8.112;2023-08-31T19:32:10;8.15;;;1.80;;
30010;SDS011;16851;53.564;8.112;2023-08-31T19:37:15;8.52;;;2.10;;
30010;SDS011;16851;53.564;8.112;2023-08-31T19:42:24;5.00;;;1.65;;
30010;SDS011;16851;53.564;8.112;2023-08-31T19:47:29;8.13;;;2.05;;
30010;SDS011;16851;53.564;8.112;2023-08-31T19:52:30;7.32;;;1.95;;
30010;SDS011;16851;53.564;8.112;2023-08-31T19:57:37;4.53;;;1.73;;
30010;SDS011;16851;53.564;8.112;2023-08-31T20:02:42;7.03;;;1.90;;
30010;SDS011;16851;53.564;8.112;2023-08-31T20:07:44;6.97;;;1.80;;
30010;SDS011;16851;53.564;8.112;2023-08-31T20:12:50;5.03;;;1.90;;
30010;SDS011;16851;53.564;8.112;2023-08-31T20:17:52;6.55;;;1.70;;
30010;SDS011;16851;53.564;8.112;2023-08-31T20:22:56;5.47;;;1.80;;
30010;SDS011;16851;53.564;8.112;2023-08-31T20:28:01;6.97;;;2.28;;
30010;SDS011;16851;53.564;8.112;2023-08-31T20:33:02;8.90;;;2.05;;
30010;SDS011;16851;53.564;8.112;2023-08-31T20:38:07;7.38;;;1.73;;
30010;SDS011;16851;53.564;8.112;2023-08-31T20:43:09;4.68;;;1.85;;
30010;SDS011;16851;53.564;8.112;2023-08-31T20:48:11;6.80;;;1.65;;
30010;SDS011;16851;53.564;8.112;2023-08-31T20:53:17;3.83;;;1.83;;
30010;SDS011;16851;53.564;8.112;2023-08-31T20:58:21;5.78;;;1.67;;
30010;SDS011;16851;53.564;8.112;2023-08-31T21:03:23;9.05;;;1.77;;
30010;SDS011;16851;53.564;8.112;2023-08-31T21:08:25;6.45;;;2.00;;
30010;SDS011;16851;53.564;8.112;2023-08-31T21:13:30;5.25;;;1.92;;
30010;SDS011;16851;53.564;8.112;2023-08-31T21:18:37;7.82;;;1.80;;
30010;SDS011;16851;53.564;8.112;2023-08-31T21:23:39;7.15;;;1.65;;
30010;SDS011;16851;53.564;8.112;2023-08-31T21:28:43;11.05;;;2.00;;
30010;SDS011;16851;53.564;8.112;2023-08-31T21:33:45;8.95;;;2.05;;
30010;SDS011;16851;53.564;8.112;2023-08-31T21:38:47;9.60;;;2.10;;
30010;SDS011;16851;53.564;8.112;2023-08-31T21:43:49;6.30;;;2.35;;
30010;SDS011;16851;53.564;8.112;2023-08-31T21:48:53;7.80;;;2.55;;
30010;SDS011;16851;53.564;8.112;2023-08-31T21:53:57;8.52;;;1.98;;
30010;SDS011;16851;53.564;8.112;2023-08-31T21:59:02;12.05;;;2.30;;
30010;SDS011;16851;53.564;8.112;2023-08-31T22:04:03;8.57;;;2.03;;
30010;SDS011;16851;53.564;8.112;2023-08-31T22:09:06;9.40;;;2.13;;
30010;SDS011;16851;53.564;8.112;2023-08-31T22:14:12;9.30;;;2.63;;
30010;SDS011;16851;53.564;8.112;2023-08-31T22:19:14;8.30;;;2.33;;
30010;SDS011;16851;53.564;8.112;2023-08-31T22:24:19;4.30;;;2.00;;
30010;SDS011;16851;53.564;8.112;2023-08-31T22:29:24;4.30;;;2.17;;
30010;SDS011;16851;53.564;8.112;2023-08-31T22:34:25;9.40;;;2.28;;
30010;SDS011;16851;53.564;8.112;2023-08-31T22:39:31;7.65;;;2.15;;
30010;SDS011;16851;53.564;8.112;2023-08-31T22:44:34;7.20;;;2.30;;
30010;SDS011;16851;53.564;8.112;2023-08-31T22:49:38;6.88;;;2.70;;
30010;SDS011;16851;53.564;8.112;2023-08-31T22:54:40;5.65;;;2.22;;
30010;SDS011;16851;53.564;8.112;2023-08-31T22:59:42;8.45;;;2.50;;
30010;SDS011;16851;53.564;8.112;2023-08-31T23:04:49;16.60;;;3.58;;
30010;SDS011;16851;53.564;8.112;2023-08-31T23:09:53;7.93;;;3.10;;
30010;SDS011;16851;53.564;8.112;2023-08-31T23:14:57;8.80;;;3.40;;
30010;SDS011;16851;53.564;8.112;2023-08-31T23:20:01;13.25;;;3.55;;
30010;SDS011;16851;53.564;8.112;2023-08-31T23:25:06;10.75;;;3.05;;
30010;SDS011;16851;53.564;8.112;2023-08-31T23:30:11;7.38;;;2.92;;
30010;SDS011;16851;53.564;8.112;2023-08-31T23:35:13;11.70;;;3.00;;
30010;SDS011;16851;53.564;8.112;2023-08-31T23:40:21;11.05;;;2.97;;
30010;SDS011;16851;53.564;8.112;2023-08-31T23:45:25;8.90;;;3.10;;
30010;SDS011;16851;53.564;8.112;2023-08-31T23:50:28;8.55;;;3.42;;
30010;SDS011;16851;53.564;8.112;2023-08-31T23:55:30;12.52;;;3.30;;
